createdAt,value
2023-02-06T00:03:12.902Z,8.10
2023-02-06T00:08:14.840Z,11.90
2023-02-06T00:13:16.888Z,9.05
2023-02-06T00:18:18.575Z,9.73
2023-02-06T00:23:20.261Z,12.00
2023-02-06T00:28:22.181Z,11.55
2023-02-06T00:33:24.641Z,13.25
2023-02-06T00:38:26.440Z,14.05
2023-02-06T00:43:28.138Z,9.13
2023-02-06T00:48:31.607Z,11.30
2023-02-06T00:53:33.755Z,11.75
2023-02-06T00:58:35.501Z,12.05
2023-02-06T01:03:38.031Z,17.48
2023-02-06T01:08:39.658Z,12.80
2023-02-06T01:13:42.289Z,11.10
2023-02-06T01:18:43.996Z,9.63
2023-02-06T01:23:46.934Z,8.10
2023-02-06T01:28:49.085Z,8.65
2023-02-06T01:33:51.810Z,9.50
2023-02-06T01:38:53.600Z,10.15
2023-02-06T01:44:14.878Z,11.25
2023-02-06T01:49:27.632Z,9.18
2023-02-06T01:54:31.694Z,10.18
2023-02-06T01:59:34.631Z,8.68
2023-02-06T02:04:36.409Z,9.68
2023-02-06T02:09:38.229Z,8.70
2023-02-06T02:14:42.562Z,10.30
2023-02-06T02:19:59.480Z,13.50
2023-02-06T02:25:30.466Z,10.65
2023-02-06T02:30:41.307Z,12.15
2023-02-06T02:35:42.957Z,10.57
2023-02-06T02:40:56.089Z,9.65
2023-02-06T02:46:09.074Z,12.77
2023-02-06T02:51:11.679Z,10.13
2023-02-06T02:56:17.456Z,13.45
2023-02-06T03:01:24.582Z,9.60
2023-02-06T03:06:40.402Z,10.93
2023-02-06T03:11:50.786Z,10.60
2023-02-06T03:16:58.107Z,10.07
2023-02-06T03:27:08.628Z,10.43
2023-02-06T03:32:32.370Z,10.50
2023-02-06T03:37:35.722Z,13.30
2023-02-06T03:42:42.458Z,11.85
2023-02-06T03:47:46.547Z,11.93
2023-02-06T03:52:51.113Z,12.77
2023-02-06T03:58:01.473Z,10.70
2023-02-06T04:03:04.805Z,10.30
2023-02-06T04:08:07.252Z,12.80
2023-02-06T04:13:09.006Z,9.48
2023-02-06T04:18:10.700Z,12.65
2023-02-06T04:23:12.361Z,10.95
2023-02-06T04:28:14.378Z,10.35
2023-02-06T04:33:16.519Z,11.43
2023-02-06T04:38:18.750Z,15.15
2023-02-06T04:43:22.104Z,11.25
2023-02-06T04:48:25.986Z,12.73
2023-02-06T04:53:29.775Z,11.50
2023-02-06T04:58:31.548Z,12.70
2023-02-06T05:03:33.507Z,11.35
2023-02-06T05:08:39.770Z,12.95
2023-02-06T05:13:42.436Z,11.20
2023-02-06T05:18:46.670Z,10.48
2023-02-06T05:23:48.410Z,14.10
2023-02-06T05:28:50.138Z,9.70
2023-02-06T05:33:52.690Z,11.35
2023-02-06T05:38:54.744Z,10.60
2023-02-06T05:43:56.451Z,12.07
2023-02-06T05:48:58.743Z,15.68
2023-02-06T05:54:00.971Z,12.27
2023-02-06T05:59:02.694Z,10.98
2023-02-06T06:04:04.504Z,10.05
2023-02-06T06:09:06.288Z,11.38
2023-02-06T06:14:08.478Z,13.52
2023-02-06T06:19:10.275Z,12.43
2023-02-06T06:24:11.946Z,9.52
2023-02-06T06:29:13.770Z,14.57
2023-02-06T06:34:15.470Z,10.68
2023-02-06T06:44:45.055Z,11.15
2023-02-06T06:49:46.746Z,12.18
2023-02-06T06:54:48.522Z,14.43
2023-02-06T06:59:50.983Z,11.68
2023-02-06T07:04:52.658Z,15.93
2023-02-06T07:09:54.349Z,16.65
2023-02-06T07:14:55.998Z,12.85
2023-02-06T07:19:57.679Z,15.25
2023-02-06T07:24:59.326Z,12.50
2023-02-06T07:30:01.006Z,12.77
2023-02-06T07:35:03.074Z,14.75
2023-02-06T07:40:05.680Z,14.10
2023-02-06T07:45:07.708Z,15.80
2023-02-06T07:50:10.240Z,20.63
2023-02-06T07:55:12.050Z,13.35
2023-02-06T08:00:14.365Z,14.27
2023-02-06T08:05:16.125Z,17.13
2023-02-06T08:10:17.960Z,15.38
2023-02-06T08:15:19.585Z,14.15
2023-02-06T08:20:21.247Z,20.23
2023-02-06T08:25:22.963Z,15.55
2023-02-06T08:30:24.846Z,18.90
2023-02-06T08:35:26.639Z,18.38
2023-02-06T08:40:28.313Z,27.05
2023-02-06T08:45:29.935Z,20.67
2023-02-06T08:50:31.580Z,17.30
2023-02-06T08:55:33.267Z,16.95
2023-02-06T09:00:35.020Z,17.83
2023-02-06T09:05:36.962Z,24.73
2023-02-06T09:10:38.881Z,17.30
2023-02-06T09:15:41.508Z,17.20
2023-02-06T09:20:43.221Z,16.42
2023-02-06T09:25:45.662Z,19.50
2023-02-06T09:30:47.441Z,17.05
2023-02-06T09:35:49.163Z,18.92
2023-02-06T09:40:53.296Z,28.00
2023-02-06T09:46:04.629Z,20.42
2023-02-06T09:51:45.110Z,16.88
2023-02-06T09:56:49.646Z,17.77
2023-02-06T10:02:13.076Z,18.65
2023-02-06T10:07:17.570Z,18.45
2023-02-06T10:12:35.876Z,28.65
2023-02-06T10:18:01.188Z,23.67
2023-02-06T10:23:23.796Z,22.80
2023-02-06T10:28:28.723Z,20.20
2023-02-06T10:33:56.387Z,25.20
2023-02-06T10:39:25.995Z,26.73
2023-02-06T10:44:39.128Z,22.05
2023-02-06T10:49:55.372Z,23.40
2023-02-06T11:00:03.509Z,37.38
2023-02-06T11:05:16.136Z,28.90
2023-02-06T11:10:20.697Z,28.40
2023-02-06T11:15:27.466Z,26.95
2023-02-06T11:20:33.288Z,30.25
2023-02-06T11:25:35.485Z,26.17
2023-02-06T11:30:41.335Z,32.10
2023-02-06T11:35:55.475Z,31.35
2023-02-06T11:41:01.519Z,25.52
2023-02-06T11:46:26.845Z,32.75
2023-02-06T11:51:54.001Z,37.25
2023-02-06T12:02:25.191Z,34.90
2023-02-06T12:07:47.147Z,26.38
2023-02-06T12:12:56.314Z,27.58
2023-02-06T12:18:03.988Z,24.15
2023-02-06T12:23:14.810Z,26.73
2023-02-06T12:28:38.658Z,24.65
2023-02-06T12:33:47.839Z,23.90
2023-02-06T12:39:11.750Z,25.58
2023-02-06T12:44:40.812Z,24.27
2023-02-06T12:50:13.739Z,23.58
2023-02-06T12:55:23.465Z,23.17
2023-02-06T13:00:38.195Z,24.65
2023-02-06T13:05:44.344Z,25.73
2023-02-06T13:10:58.370Z,22.80
2023-02-06T13:16:00.686Z,27.48
2023-02-06T13:21:20.933Z,25.55
2023-02-06T13:26:56.495Z,24.88
2023-02-06T13:32:20.844Z,32.38
2023-02-06T13:37:33.618Z,28.45
2023-02-06T13:42:58.339Z,25.95
2023-02-06T13:48:06.013Z,25.60
2023-02-06T13:53:16.705Z,27.55
2023-02-06T13:58:41.056Z,25.30
2023-02-06T14:03:46.075Z,25.60
2023-02-06T14:09:06.504Z,28.23
2023-02-06T14:14:27.360Z,26.15
2023-02-06T14:19:44.363Z,23.75
2023-02-06T14:25:10.719Z,22.52
2023-02-06T14:30:50.781Z,22.93
2023-02-06T14:36:08.679Z,22.35
2023-02-06T14:41:11.002Z,20.33
2023-02-06T14:46:15.764Z,20.42
2023-02-06T14:51:20.364Z,23.63
2023-02-06T14:56:28.725Z,23.15
2023-02-06T15:01:32.796Z,23.27
2023-02-06T15:06:37.714Z,23.02
2023-02-06T15:11:39.752Z,25.25
2023-02-06T15:16:49.330Z,24.23
2023-02-06T15:22:01.645Z,25.25
2023-02-06T15:27:18.570Z,27.33
2023-02-06T15:32:38.593Z,28.08
2023-02-06T15:37:40.443Z,33.65
2023-02-06T15:42:42.502Z,29.98
2023-02-06T15:47:46.077Z,35.80
2023-02-06T15:52:48.240Z,35.38
2023-02-06T15:57:51.597Z,30.25
2023-02-06T16:03:05.028Z,33.45
2023-02-06T16:08:22.325Z,36.03
2023-02-06T16:18:34.270Z,27.35
2023-02-06T16:24:03.180Z,27.33
2023-02-06T16:29:10.829Z,30.00
2023-02-06T16:34:35.152Z,33.55
2023-02-06T16:39:36.879Z,32.40
2023-02-06T16:44:44.749Z,33.28
2023-02-06T16:49:52.042Z,32.20
2023-02-06T16:54:59.046Z,30.97
2023-02-06T17:00:02.135Z,30.13
2023-02-06T17:05:05.015Z,27.58
2023-02-06T17:10:08.050Z,22.58
2023-02-06T17:15:11.973Z,36.28
2023-02-06T17:20:37.209Z,20.00
2023-02-06T17:25:40.688Z,23.83
2023-02-06T17:30:42.524Z,21.55
2023-02-06T17:35:47.225Z,20.10
2023-02-06T17:40:49.172Z,21.10
2023-02-06T17:45:50.961Z,28.63
2023-02-06T17:50:52.841Z,22.30
2023-02-06T17:55:54.538Z,32.17
2023-02-06T18:00:56.244Z,27.42
2023-02-06T18:06:01.985Z,23.98
2023-02-06T18:11:11.703Z,27.55
2023-02-06T18:16:26.158Z,23.83
2023-02-06T18:21:30.450Z,22.00
2023-02-06T18:26:35.624Z,22.95
2023-02-06T18:31:38.091Z,33.45
2023-02-06T18:36:39.857Z,28.90
2023-02-06T18:42:00.538Z,35.67
2023-02-06T18:47:02.307Z,31.17
2023-02-06T18:52:05.234Z,34.90
2023-02-06T18:57:07.304Z,29.42
2023-02-06T19:02:10.883Z,36.88
2023-02-06T19:07:13.752Z,37.03
2023-02-06T19:12:15.498Z,51.45
2023-02-06T19:17:17.257Z,42.63
2023-02-06T19:22:19.001Z,38.15
2023-02-06T19:27:21.646Z,33.90
2023-02-06T19:32:26.000Z,43.90
2023-02-06T19:37:27.755Z,41.00
2023-02-06T19:42:29.468Z,44.15
2023-02-06T19:47:31.172Z,33.60
2023-02-06T19:52:35.252Z,35.78
2023-02-06T19:57:39.631Z,30.33
2023-02-06T20:02:41.574Z,26.92
2023-02-06T20:07:43.278Z,34.47
2023-02-06T20:12:45.226Z,39.60
2023-02-06T20:17:46.902Z,35.50
2023-02-06T20:22:48.612Z,39.90
2023-02-06T20:27:50.381Z,37.30
2023-02-06T20:32:52.138Z,32.70
2023-02-06T20:37:53.866Z,39.05
2023-02-06T20:42:55.612Z,26.33
2023-02-06T20:47:57.350Z,37.85
2023-02-06T20:52:59.182Z,33.60
2023-02-06T20:58:00.832Z,39.75
2023-02-06T21:03:02.646Z,35.95
2023-02-06T21:08:04.584Z,36.92
2023-02-06T21:13:06.398Z,39.95
2023-02-06T21:18:08.186Z,43.88
2023-02-06T21:23:10.327Z,43.97
2023-02-06T21:28:12.154Z,47.47
2023-02-06T21:33:13.887Z,49.92
2023-02-06T21:38:15.753Z,41.95
2023-02-06T21:43:17.549Z,42.08
2023-02-06T21:48:19.287Z,44.60
2023-02-06T21:53:21.853Z,49.47
2023-02-06T21:58:23.523Z,48.30
2023-02-06T22:03:25.444Z,40.92
2023-02-06T22:08:27.117Z,47.13
2023-02-06T22:13:28.902Z,46.47
2023-02-06T22:18:30.558Z,41.08
2023-02-06T22:23:32.484Z,38.08
2023-02-06T22:28:34.593Z,49.95
2023-02-06T22:33:36.973Z,42.53
2023-02-06T22:38:39.485Z,37.67
2023-02-06T22:43:41.897Z,47.13
2023-02-06T22:48:43.643Z,40.10
2023-02-06T22:53:45.659Z,42.00
2023-02-06T22:58:48.783Z,35.92
2023-02-06T23:03:54.688Z,31.33
2023-02-06T23:08:57.799Z,34.90
2023-02-06T23:14:05.880Z,38.80
2023-02-06T23:19:08.280Z,30.52
2023-02-06T23:24:10.769Z,37.88
2023-02-06T23:29:17.770Z,33.38
2023-02-06T23:34:20.569Z,30.60
2023-02-06T23:39:22.212Z,35.00
2023-02-06T23:44:23.867Z,29.20
2023-02-06T23:49:25.482Z,34.15
2023-02-06T23:54:27.105Z,39.88
2023-02-06T23:59:28.791Z,32.47
